sensor_id;sensor_type;location;lat;lon;timestamp;temperature;humidity
2639;DHT22;1329;51.384;7.122;2022-11-12T00:00:11;10.10;18.40
2639;DHT22;1329;51.384;7.122;2022-11-12T00:02:38;10.10;18.90
2639;DHT22;1329;51.384;7.122;2022-11-12T00:05:06;10.10;19.00
2639;DHT22;1329;51.384;7.122;2022-11-12T00:07:33;10.00;19.30
2639;DHT22;1329;51.384;7.122;2022-11-12T00:10:01;10.00;19.50
2639;DHT22;1329;51.384;7.122;2022-11-12T00:12:28;9.90;20.90
2639;DHT22;1329;51.384;7.122;2022-11-12T00:14:55;9.90;21.00
2639;DHT22;1329;51.384;7.122;2022-11-12T00:17:22;10.00;20.60
2639;DHT22;1329;51.384;7.122;2022-11-12T00:19:48;10.00;20.70
2639;DHT22;1329;51.384;7.122;2022-11-12T00:22:15;9.90;21.50
2639;DHT22;1329;51.384;7.122;2022-11-12T00:24:42;9.90;21.60
2639;DHT22;1329;51.384;7.122;2022-11-12T00:27:10;9.90;21.60
2639;DHT22;1329;51.384;7.122;2022-11-12T00:29:37;9.90;21.80
2639;DHT22;1329;51.384;7.122;2022-11-12T00:32:04;9.90;21.60
2639;DHT22;1329;51.384;7.122;2022-11-12T00:34:32;9.90;21.40
2639;DHT22;1329;51.384;7.122;2022-11-12T00:37:00;9.90;21.40
2639;DHT22;1329;51.384;7.122;2022-11-12T00:39:27;10.00;20.50
2639;DHT22;1329;51.384;7.122;2022-11-12T00:41:54;9.90;20.70
2639;DHT22;1329;51.384;7.122;2022-11-12T00:44:23;9.90;20.70
2639;DHT22;1329;51.384;7.122;2022-11-12T00:46:50;9.80;21.00
2639;DHT22;1329;51.384;7.122;2022-11-12T00:49:17;9.80;20.70
2639;DHT22;1329;51.384;7.122;2022-11-12T00:51:43;9.80;20.90
2639;DHT22;1329;51.384;7.122;2022-11-12T00:54:10;9.70;21.20
2639;DHT22;1329;51.384;7.122;2022-11-12T00:56:37;9.70;21.50
2639;DHT22;1329;51.384;7.122;2022-11-12T00:59:04;9.70;21.90
2639;DHT22;1329;51.384;7.122;2022-11-12T01:01:32;9.70;21.90
2639;DHT22;1329;51.384;7.122;2022-11-12T01:04:00;9.60;22.40
2639;DHT22;1329;51.384;7.122;2022-11-12T01:06:27;9.60;22.90
2639;DHT22;1329;51.384;7.122;2022-11-12T01:08:54;9.60;23.10
2639;DHT22;1329;51.384;7.122;2022-11-12T01:11:23;9.60;22.80
2639;DHT22;1329;51.384;7.122;2022-11-12T01:13:53;9.60;22.10
2639;DHT22;1329;51.384;7.122;2022-11-12T01:16:23;9.60;22.00
2639;DHT22;1329;51.384;7.122;2022-11-12T01:18:53;9.60;21.40
2639;DHT22;1329;51.384;7.122;2022-11-12T01:21:21;9.50;21.20
2639;DHT22;1329;51.384;7.122;2022-11-12T01:23:48;9.50;20.80
2639;DHT22;1329;51.384;7.122;2022-11-12T01:26:17;9.40;20.60
2639;DHT22;1329;51.384;7.122;2022-11-12T01:28:45;9.40;21.30
2639;DHT22;1329;51.384;7.122;2022-11-12T01:31:14;9.30;21.50
2639;DHT22;1329;51.384;7.122;2022-11-12T01:33:43;9.30;21.50
2639;DHT22;1329;51.384;7.122;2022-11-12T01:36:13;9.30;21.90
2639;DHT22;1329;51.384;7.122;2022-11-12T01:38:42;9.20;22.80
2639;DHT22;1329;51.384;7.122;2022-11-12T01:41:12;9.20;23.30
2639;DHT22;1329;51.384;7.122;2022-11-12T01:43:40;9.20;24.00
2639;DHT22;1329;51.384;7.122;2022-11-12T01:46:12;9.10;23.90
2639;DHT22;1329;51.384;7.122;2022-11-12T01:48:46;9.10;25.60
2639;DHT22;1329;51.384;7.122;2022-11-12T01:51:18;9.10;25.70
2639;DHT22;1329;51.384;7.122;2022-11-12T01:53:48;9.10;26.00
2639;DHT22;1329;51.384;7.122;2022-11-12T01:56:17;9.10;26.40
2639;DHT22;1329;51.384;7.122;2022-11-12T01:58:48;9.10;25.90
2639;DHT22;1329;51.384;7.122;2022-11-12T02:01:18;9.10;25.30
2639;DHT22;1329;51.384;7.122;2022-11-12T02:03:45;9.10;24.40
2639;DHT22;1329;51.384;7.122;2022-11-12T02:06:13;9.10;24.40
2639;DHT22;1329;51.384;7.122;2022-11-12T02:08:43;9.10;25.10
2639;DHT22;1329;51.384;7.122;2022-11-12T02:11:12;9.00;24.80
2639;DHT22;1329;51.384;7.122;2022-11-12T02:13:41;9.00;24.60
2639;DHT22;1329;51.384;7.122;2022-11-12T02:16:27;9.00;23.80
2639;DHT22;1329;51.384;7.122;2022-11-12T02:18:55;8.90;23.60
2639;DHT22;1329;51.384;7.122;2022-11-12T02:21:24;8.90;23.60
2639;DHT22;1329;51.384;7.122;2022-11-12T02:24:00;8.90;23.60
2639;DHT22;1329;51.384;7.122;2022-11-12T02:26:31;8.80;23.70
2639;DHT22;1329;51.384;7.122;2022-11-12T02:29:01;8.80;23.80
2639;DHT22;1329;51.384;7.122;2022-11-12T02:31:28;8.70;23.70
2639;DHT22;1329;51.384;7.122;2022-11-12T02:33:55;8.70;23.80
2639;DHT22;1329;51.384;7.122;2022-11-12T02:36:24;8.70;24.10
2639;DHT22;1329;51.384;7.122;2022-11-12T02:38:51;8.60;24.10
2639;DHT22;1329;51.384;7.122;2022-11-12T02:41:18;8.60;24.20
2639;DHT22;1329;51.384;7.122;2022-11-12T02:43:45;8.60;24.30
2639;DHT22;1329;51.384;7.122;2022-11-12T02:46:13;8.60;24.60
2639;DHT22;1329;51.384;7.122;2022-11-12T02:48:40;8.50;24.40
2639;DHT22;1329;51.384;7.122;2022-11-12T02:51:07;8.50;24.60
2639;DHT22;1329;51.384;7.122;2022-11-12T02:53:36;8.50;24.80
2639;DHT22;1329;51.384;7.122;2022-11-12T02:56:03;8.40;25.00
2639;DHT22;1329;51.384;7.122;2022-11-12T02:58:30;8.40;24.80
2639;DHT22;1329;51.384;7.122;2022-11-12T03:00:57;8.40;24.90
2639;DHT22;1329;51.384;7.122;2022-11-12T03:03:24;8.40;25.00
2639;DHT22;1329;51.384;7.122;2022-11-12T03:05:55;8.40;25.00
2639;DHT22;1329;51.384;7.122;2022-11-12T03:08:23;8.40;25.40
2639;DHT22;1329;51.384;7.122;2022-11-12T03:10:52;8.30;25.00
2639;DHT22;1329;51.384;7.122;2022-11-12T03:13:19;8.30;25.80
2639;DHT22;1329;51.384;7.122;2022-11-12T03:15:46;8.30;25.50
2639;DHT22;1329;51.384;7.122;2022-11-12T03:18:13;8.30;25.30
2639;DHT22;1329;51.384;7.122;2022-11-12T03:20:40;8.30;25.00
2639;DHT22;1329;51.384;7.122;2022-11-12T03:23:08;8.20;25.00
2639;DHT22;1329;51.384;7.122;2022-11-12T03:25:37;8.20;25.20
2639;DHT22;1329;51.384;7.122;2022-11-12T03:28:07;8.20;25.20
2639;DHT22;1329;51.384;7.122;2022-11-12T03:30:36;8.20;26.00
2639;DHT22;1329;51.384;7.122;2022-11-12T03:33:05;8.20;26.00
2639;DHT22;1329;51.384;7.122;2022-11-12T03:35:33;8.10;26.30
2639;DHT22;1329;51.384;7.122;2022-11-12T03:38:00;8.10;26.10
2639;DHT22;1329;51.384;7.122;2022-11-12T03:40:28;8.10;26.00
2639;DHT22;1329;51.384;7.122;2022-11-12T03:42:56;8.10;25.60
2639;DHT22;1329;51.384;7.122;2022-11-12T03:45:26;8.10;25.60
2639;DHT22;1329;51.384;7.122;2022-11-12T03:47:55;8.00;26.00
2639;DHT22;1329;51.384;7.122;2022-11-12T03:50:24;8.00;25.50
2639;DHT22;1329;51.384;7.122;2022-11-12T03:52:54;8.00;25.50
2639;DHT22;1329;51.384;7.122;2022-11-12T03:55:24;8.00;25.70
2639;DHT22;1329;51.384;7.122;2022-11-12T03:57:53;7.90;26.00
2639;DHT22;1329;51.384;7.122;2022-11-12T04:00:22;7.90;25.80
2639;DHT22;1329;51.384;7.122;2022-11-12T04:02:51;7.90;26.10
2639;DHT22;1329;51.384;7.122;2022-11-12T04:05:20;7.90;26.00
2639;DHT22;1329;51.384;7.122;2022-11-12T04:08:06;7.90;25.90
2639;DHT22;1329;51.384;7.122;2022-11-12T04:10:52;7.90;26.10
2639;DHT22;1329;51.384;7.122;2022-11-12T04:13:19;7.80;25.90
2639;DHT22;1329;51.384;7.122;2022-11-12T04:15:57;7.80;25.80
2639;DHT22;1329;51.384;7.122;2022-11-12T04:18:44;7.80;26.30
2639;DHT22;1329;51.384;7.122;2022-11-12T04:21:32;7.80;26.40
2639;DHT22;1329;51.384;7.122;2022-11-12T04:24:22;7.70;26.20
2639;DHT22;1329;51.384;7.122;2022-11-12T04:27:09;7.70;26.30
2639;DHT22;1329;51.384;7.122;2022-11-12T04:29:36;7.70;26.10
2639;DHT22;1329;51.384;7.122;2022-11-12T04:32:22;7.70;26.10
2639;DHT22;1329;51.384;7.122;2022-11-12T04:34:50;7.70;26.50
2639;DHT22;1329;51.384;7.122;2022-11-12T04:37:18;7.60;26.30
2639;DHT22;1329;51.384;7.122;2022-11-12T04:39:45;7.60;26.40
2639;DHT22;1329;51.384;7.122;2022-11-12T04:42:12;7.60;26.30
2639;DHT22;1329;51.384;7.122;2022-11-12T04:44:56;7.60;26.30
2639;DHT22;1329;51.384;7.122;2022-11-12T04:47:31;7.60;26.20
2639;DHT22;1329;51.384;7.122;2022-11-12T04:50:00;7.60;26.50
2639;DHT22;1329;51.384;7.122;2022-11-12T04:52:29;7.60;26.50
2639;DHT22;1329;51.384;7.122;2022-11-12T04:54:57;7.60;26.60
2639;DHT22;1329;51.384;7.122;2022-11-12T04:57:25;7.50;26.70
2639;DHT22;1329;51.384;7.122;2022-11-12T04:59:52;7.50;27.00
2639;DHT22;1329;51.384;7.122;2022-11-12T05:02:19;7.50;26.90
2639;DHT22;1329;51.384;7.122;2022-11-12T05:04:47;7.50;27.10
2639;DHT22;1329;51.384;7.122;2022-11-12T05:07:15;7.50;27.70
2639;DHT22;1329;51.384;7.122;2022-11-12T05:09:42;7.50;27.60
2639;DHT22;1329;51.384;7.122;2022-11-12T05:12:09;7.50;27.30
2639;DHT22;1329;51.384;7.122;2022-11-12T05:14:36;7.50;27.30
2639;DHT22;1329;51.384;7.122;2022-11-12T05:17:03;7.50;27.50
2639;DHT22;1329;51.384;7.122;2022-11-12T05:19:30;7.50;27.70
2639;DHT22;1329;51.384;7.122;2022-11-12T05:22:00;7.40;27.50
2639;DHT22;1329;51.384;7.122;2022-11-12T05:24:37;7.40;28.00
2639;DHT22;1329;51.384;7.122;2022-11-12T05:27:08;7.40;28.00
2639;DHT22;1329;51.384;7.122;2022-11-12T05:29:37;7.40;27.90
2639;DHT22;1329;51.384;7.122;2022-11-12T05:32:06;7.40;27.70
2639;DHT22;1329;51.384;7.122;2022-11-12T05:34:34;7.40;27.90
2639;DHT22;1329;51.384;7.122;2022-11-12T05:37:04;7.30;27.70
2639;DHT22;1329;51.384;7.122;2022-11-12T05:39:32;7.40;28.30
2639;DHT22;1329;51.384;7.122;2022-11-12T05:41:59;7.30;28.00
2639;DHT22;1329;51.384;7.122;2022-11-12T05:44:25;7.30;28.10
2639;DHT22;1329;51.384;7.122;2022-11-12T05:46:52;7.30;28.20
2639;DHT22;1329;51.384;7.122;2022-11-12T05:49:20;7.30;29.10
2639;DHT22;1329;51.384;7.122;2022-11-12T05:51:47;7.30;28.30
2639;DHT22;1329;51.384;7.122;2022-11-12T05:54:15;7.30;28.20
2639;DHT22;1329;51.384;7.122;2022-11-12T05:56:43;7.30;28.40
2639;DHT22;1329;51.384;7.122;2022-11-12T05:59:11;7.30;28.20
2639;DHT22;1329;51.384;7.122;2022-11-12T06:01:39;7.30;28.20
2639;DHT22;1329;51.384;7.122;2022-11-12T06:04:10;7.30;28.00
2639;DHT22;1329;51.384;7.122;2022-11-12T06:06:37;7.30;27.90
2639;DHT22;1329;51.384;7.122;2022-11-12T06:09:04;7.20;27.70
2639;DHT22;1329;51.384;7.122;2022-11-12T06:11:33;7.20;27.50
2639;DHT22;1329;51.384;7.122;2022-11-12T06:14:01;7.20;27.90
2639;DHT22;1329;51.384;7.122;2022-11-12T06:16:29;7.20;28.00
2639;DHT22;1329;51.384;7.122;2022-11-12T06:18:56;7.10;28.20
2639;DHT22;1329;51.384;7.122;2022-11-12T06:21:23;7.10;28.60
2639;DHT22;1329;51.384;7.122;2022-11-12T06:23:53;7.10;28.90
2639;DHT22;1329;51.384;7.122;2022-11-12T06:26:23;7.10;29.40
2639;DHT22;1329;51.384;7.122;2022-11-12T06:28:52;7.10;29.60
2639;DHT22;1329;51.384;7.122;2022-11-12T06:31:21;7.10;29.90
2639;DHT22;1329;51.384;7.122;2022-11-12T06:33:48;7.10;29.50
2639;DHT22;1329;51.384;7.122;2022-11-12T06:36:17;7.10;29.50
2639;DHT22;1329;51.384;7.122;2022-11-12T06:38:45;7.10;29.60
2639;DHT22;1329;51.384;7.122;2022-11-12T06:41:13;7.10;29.20
2639;DHT22;1329;51.384;7.122;2022-11-12T06:43:40;7.10;29.40
2639;DHT22;1329;51.384;7.122;2022-11-12T06:46:11;7.10;29.40
2639;DHT22;1329;51.384;7.122;2022-11-12T06:48:40;7.10;29.60
2639;DHT22;1329;51.384;7.122;2022-11-12T06:51:10;7.10;29.20
2639;DHT22;1329;51.384;7.122;2022-11-12T06:53:38;7.10;29.70
2639;DHT22;1329;51.384;7.122;2022-11-12T06:56:06;7.00;29.60
2639;DHT22;1329;51.384;7.122;2022-11-12T06:58:33;7.10;30.10
2639;DHT22;1329;51.384;7.122;2022-11-12T07:01:11;7.00;30.40
2639;DHT22;1329;51.384;7.122;2022-11-12T07:03:40;7.10;32.60
2639;DHT22;1329;51.384;7.122;2022-11-12T07:06:10;7.00;31.30
2639;DHT22;1329;51.384;7.122;2022-11-12T07:08:38;7.00;31.60
2639;DHT22;1329;51.384;7.122;2022-11-12T07:11:06;7.00;31.50
2639;DHT22;1329;51.384;7.122;2022-11-12T07:13:34;7.00;31.60
2639;DHT22;1329;51.384;7.122;2022-11-12T07:16:02;7.10;31.40
2639;DHT22;1329;51.384;7.122;2022-11-12T07:18:32;7.10;31.30
2639;DHT22;1329;51.384;7.122;2022-11-12T07:21:01;7.10;31.90
2639;DHT22;1329;51.384;7.122;2022-11-12T07:23:30;7.10;31.80
2639;DHT22;1329;51.384;7.122;2022-11-12T07:25:59;7.10;32.20
2639;DHT22;1329;51.384;7.122;2022-11-12T07:28:28;7.10;32.40
2639;DHT22;1329;51.384;7.122;2022-11-12T07:30:56;7.10;32.60
2639;DHT22;1329;51.384;7.122;2022-11-12T07:33:24;7.10;32.90
2639;DHT22;1329;51.384;7.122;2022-11-12T07:36:00;7.10;32.90
2639;DHT22;1329;51.384;7.122;2022-11-12T07:38:29;7.10;34.50
2639;DHT22;1329;51.384;7.122;2022-11-12T07:40:58;7.10;33.80
2639;DHT22;1329;51.384;7.122;2022-11-12T07:43:26;7.10;34.20
2639;DHT22;1329;51.384;7.122;2022-11-12T07:45:57;7.10;34.70
2639;DHT22;1329;51.384;7.122;2022-11-12T07:48:24;7.20;35.90
2639;DHT22;1329;51.384;7.122;2022-11-12T07:50:51;7.20;35.20
2639;DHT22;1329;51.384;7.122;2022-11-12T07:53:19;7.20;35.50
2639;DHT22;1329;51.384;7.122;2022-11-12T07:55:52;7.20;36.20
2639;DHT22;1329;51.384;7.122;2022-11-12T07:58:20;7.20;37.90
2639;DHT22;1329;51.384;7.122;2022-11-12T08:00:48;7.20;37.10
2639;DHT22;1329;51.384;7.122;2022-11-12T08:03:15;7.30;38.10
2639;DHT22;1329;51.384;7.122;2022-11-12T08:05:41;7.30;38.50
2639;DHT22;1329;51.384;7.122;2022-11-12T08:08:09;7.30;38.90
2639;DHT22;1329;51.384;7.122;2022-11-12T08:10:38;7.30;40.10
2639;DHT22;1329;51.384;7.122;2022-11-12T08:13:05;7.40;41.80
2639;DHT22;1329;51.384;7.122;2022-11-12T08:15:32;7.40;41.70
2639;DHT22;1329;51.384;7.122;2022-11-12T08:17:58;7.40;42.60
2639;DHT22;1329;51.384;7.122;2022-11-12T08:20:25;7.50;44.10
2639;DHT22;1329;51.384;7.122;2022-11-12T08:22:52;7.50;44.90
2639;DHT22;1329;51.384;7.122;2022-11-12T08:25:19;7.50;45.90
2639;DHT22;1329;51.384;7.122;2022-11-12T08:27:47;7.60;47.10
2639;DHT22;1329;51.384;7.122;2022-11-12T08:30:14;7.60;49.70
2639;DHT22;1329;51.384;7.122;2022-11-12T08:32:40;7.70;50.50
2639;DHT22;1329;51.384;7.122;2022-11-12T08:35:07;7.70;51.70
2639;DHT22;1329;51.384;7.122;2022-11-12T08:37:34;7.80;53.50
2639;DHT22;1329;51.384;7.122;2022-11-12T08:40:01;7.80;54.40
2639;DHT22;1329;51.384;7.122;2022-11-12T08:42:28;7.90;55.20
2639;DHT22;1329;51.384;7.122;2022-11-12T08:44:56;8.00;55.80
2639;DHT22;1329;51.384;7.122;2022-11-12T08:47:22;8.00;57.30
2639;DHT22;1329;51.384;7.122;2022-11-12T08:49:49;8.10;57.30
2639;DHT22;1329;51.384;7.122;2022-11-12T08:52:16;8.10;58.70
2639;DHT22;1329;51.384;7.122;2022-11-12T08:54:43;8.20;60.30
2639;DHT22;1329;51.384;7.122;2022-11-12T08:57:10;8.20;61.70
2639;DHT22;1329;51.384;7.122;2022-11-12T08:59:37;8.30;63.20
2639;DHT22;1329;51.384;7.122;2022-11-12T09:02:11;8.40;64.70
2639;DHT22;1329;51.384;7.122;2022-11-12T09:04:38;8.50;68.80
2639;DHT22;1329;51.384;7.122;2022-11-12T09:07:05;8.50;67.00
2639;DHT22;1329;51.384;7.122;2022-11-12T09:09:31;8.60;68.10
2639;DHT22;1329;51.384;7.122;2022-11-12T09:11:58;8.60;68.90
2639;DHT22;1329;51.384;7.122;2022-11-12T09:14:26;8.70;69.60
2639;DHT22;1329;51.384;7.122;2022-11-12T09:16:53;8.80;70.40
2639;DHT22;1329;51.384;7.122;2022-11-12T09:19:21;8.90;71.70
2639;DHT22;1329;51.384;7.122;2022-11-12T09:21:48;8.90;72.70
2639;DHT22;1329;51.384;7.122;2022-11-12T09:24:15;9.00;72.40
2639;DHT22;1329;51.384;7.122;2022-11-12T09:26:42;9.00;72.70
2639;DHT22;1329;51.384;7.122;2022-11-12T09:29:09;9.10;73.40
2639;DHT22;1329;51.384;7.122;2022-11-12T09:31:35;9.20;74.10
2639;DHT22;1329;51.384;7.122;2022-11-12T09:34:03;9.20;74.80
2639;DHT22;1329;51.384;7.122;2022-11-12T09:36:31;9.30;76.40
2639;DHT22;1329;51.384;7.122;2022-11-12T09:38:58;9.40;76.60
2639;DHT22;1329;51.384;7.122;2022-11-12T09:41:28;9.50;77.00
2639;DHT22;1329;51.384;7.122;2022-11-12T09:44:01;9.60;78.00
2639;DHT22;1329;51.384;7.122;2022-11-12T09:46:34;9.60;78.30
2639;DHT22;1329;51.384;7.122;2022-11-12T09:49:09;9.70;79.30
2639;DHT22;1329;51.384;7.122;2022-11-12T09:51:42;9.90;79.80
2639;DHT22;1329;51.384;7.122;2022-11-12T09:54:20;10.00;78.80
2639;DHT22;1329;51.384;7.122;2022-11-12T09:56:49;10.10;79.30
2639;DHT22;1329;51.384;7.122;2022-11-12T09:59:17;10.10;78.90
2639;DHT22;1329;51.384;7.122;2022-11-12T10:01:54;10.20;79.10
2639;DHT22;1329;51.384;7.122;2022-11-12T10:04:36;10.40;77.70
2639;DHT22;1329;51.384;7.122;2022-11-12T10:07:31;10.50;77.50
2639;DHT22;1329;51.384;7.122;2022-11-12T10:10:12;10.60;75.80
2639;DHT22;1329;51.384;7.122;2022-11-12T10:12:49;10.70;74.70
2639;DHT22;1329;51.384;7.122;2022-11-12T10:15:35;10.80;73.00
2639;DHT22;1329;51.384;7.122;2022-11-12T10:18:28;11.00;71.80
2639;DHT22;1329;51.384;7.122;2022-11-12T10:21:06;11.10;69.30
2639;DHT22;1329;51.384;7.122;2022-11-12T10:23:40;11.20;69.10
2639;DHT22;1329;51.384;7.122;2022-11-12T10:26:11;11.30;68.80
2639;DHT22;1329;51.384;7.122;2022-11-12T10:28:42;11.40;67.90
2639;DHT22;1329;51.384;7.122;2022-11-12T10:31:13;11.60;66.40
2639;DHT22;1329;51.384;7.122;2022-11-12T10:33:40;11.70;64.70
2639;DHT22;1329;51.384;7.122;2022-11-12T10:36:22;11.80;64.10
2639;DHT22;1329;51.384;7.122;2022-11-12T10:38:53;11.90;57.60
2639;DHT22;1329;51.384;7.122;2022-11-12T10:41:23;12.00;57.30
2639;DHT22;1329;51.384;7.122;2022-11-12T10:43:56;12.00;58.60
2639;DHT22;1329;51.384;7.122;2022-11-12T10:46:27;12.10;55.80
2639;DHT22;1329;51.384;7.122;2022-11-12T10:48:59;12.20;56.50
2639;DHT22;1329;51.384;7.122;2022-11-12T10:51:30;12.20;52.30
2639;DHT22;1329;51.384;7.122;2022-11-12T10:54:19;12.30;55.20
2639;DHT22;1329;51.384;7.122;2022-11-12T10:56:51;12.40;52.10
2639;DHT22;1329;51.384;7.122;2022-11-12T10:59:19;12.40;58.30
2639;DHT22;1329;51.384;7.122;2022-11-12T11:01:54;12.50;57.30
2639;DHT22;1329;51.384;7.122;2022-11-12T11:04:28;12.60;54.20
2639;DHT22;1329;51.384;7.122;2022-11-12T11:07:02;12.70;54.40
2639;DHT22;1329;51.384;7.122;2022-11-12T11:09:33;12.70;54.90
2639;DHT22;1329;51.384;7.122;2022-11-12T11:12:00;12.80;52.30
2639;DHT22;1329;51.384;7.122;2022-11-12T11:14:29;12.80;54.70
2639;DHT22;1329;51.384;7.122;2022-11-12T11:16:59;12.90;52.40
2639;DHT22;1329;51.384;7.122;2022-11-12T11:19:34;12.90;51.50
2639;DHT22;1329;51.384;7.122;2022-11-12T11:22:13;13.10;49.70
2639;DHT22;1329;51.384;7.122;2022-11-12T11:24:57;13.10;50.00
2639;DHT22;1329;51.384;7.122;2022-11-12T11:27:40;13.20;49.70
2639;DHT22;1329;51.384;7.122;2022-11-12T11:30:12;13.30;49.70
2639;DHT22;1329;51.384;7.122;2022-11-12T11:32:51;13.40;48.40
2639;DHT22;1329;51.384;7.122;2022-11-12T11:35:45;13.40;42.40
2639;DHT22;1329;51.384;7.122;2022-11-12T11:38:31;13.50;42.30
2639;DHT22;1329;51.384;7.122;2022-11-12T11:41:13;13.60;38.80
2639;DHT22;1329;51.384;7.122;2022-11-12T11:43:57;13.70;38.30
2639;DHT22;1329;51.384;7.122;2022-11-12T11:46:39;13.80;38.60
2639;DHT22;1329;51.384;7.122;2022-11-12T11:52:31;13.90;35.80
2639;DHT22;1329;51.384;7.122;2022-11-12T11:55:22;14.00;30.60
2639;DHT22;1329;51.384;7.122;2022-11-12T11:58:05;14.00;32.70
2639;DHT22;1329;51.384;7.122;2022-11-12T12:00:46;14.10;34.10
2639;DHT22;1329;51.384;7.122;2022-11-12T12:03:20;14.10;32.80
2639;DHT22;1329;51.384;7.122;2022-11-12T12:05:57;14.20;34.60
2639;DHT22;1329;51.384;7.122;2022-11-12T12:08:44;14.20;32.20
2639;DHT22;1329;51.384;7.122;2022-11-12T12:11:20;14.20;29.70
2639;DHT22;1329;51.384;7.122;2022-11-12T12:14:04;14.30;32.80
2639;DHT22;1329;51.384;7.122;2022-11-12T12:16:55;14.40;27.40
2639;DHT22;1329;51.384;7.122;2022-11-12T12:19:39;14.50;28.00
2639;DHT22;1329;51.384;7.122;2022-11-12T12:22:14;14.50;25.50
2639;DHT22;1329;51.384;7.122;2022-11-12T12:24:48;14.50;29.20
2639;DHT22;1329;51.384;7.122;2022-11-12T12:27:20;14.50;26.80
2639;DHT22;1329;51.384;7.122;2022-11-12T12:29:51;14.60;24.80
2639;DHT22;1329;51.384;7.122;2022-11-12T12:32:22;14.60;22.60
2639;DHT22;1329;51.384;7.122;2022-11-12T12:34:57;14.70;24.20
2639;DHT22;1329;51.384;7.122;2022-11-12T12:37:34;14.70;20.30
2639;DHT22;1329;51.384;7.122;2022-11-12T12:40:07;14.70;20.90
2639;DHT22;1329;51.384;7.122;2022-11-12T12:42:43;14.80;23.20
2639;DHT22;1329;51.384;7.122;2022-11-12T12:45:37;14.80;23.10
2639;DHT22;1329;51.384;7.122;2022-11-12T12:48:10;14.80;17.70
2639;DHT22;1329;51.384;7.122;2022-11-12T12:50:41;14.90;20.40
2639;DHT22;1329;51.384;7.122;2022-11-12T12:53:29;14.90;19.90
2639;DHT22;1329;51.384;7.122;2022-11-12T12:55:59;14.90;15.40
2639;DHT22;1329;51.384;7.122;2022-11-12T12:58:28;14.90;18.40
2639;DHT22;1329;51.384;7.122;2022-11-12T13:01:01;14.90;14.60
2639;DHT22;1329;51.384;7.122;2022-11-12T13:03:53;15.00;13.80
2639;DHT22;1329;51.384;7.122;2022-11-12T13:06:23;15.00;10.90
2639;DHT22;1329;51.384;7.122;2022-11-12T13:08:55;15.00;15.20
2639;DHT22;1329;51.384;7.122;2022-11-12T13:11:48;15.10;14.60
2639;DHT22;1329;51.384;7.122;2022-11-12T13:17:48;15.20;12.70
2639;DHT22;1329;51.384;7.122;2022-11-12T13:20:37;15.20;10.00
2639;DHT22;1329;51.384;7.122;2022-11-12T13:26:43;15.20;12.50
2639;DHT22;1329;51.384;7.122;2022-11-12T13:32:26;15.30;14.50
2639;DHT22;1329;51.384;7.122;2022-11-12T13:35:30;15.30;7.30
2639;DHT22;1329;51.384;7.122;2022-11-12T13:38:02;15.40;7.10
2639;DHT22;1329;51.384;7.122;2022-11-12T13:40:39;15.40;11.90
2639;DHT22;1329;51.384;7.122;2022-11-12T13:43:16;15.40;9.20
2639;DHT22;1329;51.384;7.122;2022-11-12T13:45:49;15.50;5.90
2639;DHT22;1329;51.384;7.122;2022-11-12T13:48:22;15.50;8.60
2639;DHT22;1329;51.384;7.122;2022-11-12T13:50:53;15.50;7.80
2639;DHT22;1329;51.384;7.122;2022-11-12T13:53:23;15.60;6.00
2639;DHT22;1329;51.384;7.122;2022-11-12T13:55:52;15.60;6.90
2639;DHT22;1329;51.384;7.122;2022-11-12T13:58:26;15.60;9.30
2639;DHT22;1329;51.384;7.122;2022-11-12T14:00:55;15.60;4.70
2639;DHT22;1329;51.384;7.122;2022-11-12T14:03:25;15.70;5.60
2639;DHT22;1329;51.384;7.122;2022-11-12T14:05:58;15.70;4.80
2639;DHT22;1329;51.384;7.122;2022-11-12T14:08:43;15.70;4.50
2639;DHT22;1329;51.384;7.122;2022-11-12T14:11:45;15.70;5.40
2639;DHT22;1329;51.384;7.122;2022-11-12T14:14:24;15.80;1.00
2639;DHT22;1329;51.384;7.122;2022-11-12T14:17:03;15.80;2.50
2639;DHT22;1329;51.384;7.122;2022-11-12T14:19:59;15.80;2.60
2639;DHT22;1329;51.384;7.122;2022-11-12T14:22:45;15.80;1.60
2639;DHT22;1329;51.384;7.122;2022-11-12T14:25:15;15.80;5.30
2639;DHT22;1329;51.384;7.122;2022-11-12T14:27:44;15.80;4.80
2639;DHT22;1329;51.384;7.122;2022-11-12T14:30:15;15.80;6.60
2639;DHT22;1329;51.384;7.122;2022-11-12T14:32:45;15.80;4.90
2639;DHT22;1329;51.384;7.122;2022-11-12T14:35:32;15.80;5.00
2639;DHT22;1329;51.384;7.122;2022-11-12T14:38:13;15.80;2.90
2639;DHT22;1329;51.384;7.122;2022-11-12T14:40:45;15.80;2.30
2639;DHT22;1329;51.384;7.122;2022-11-12T14:43:23;15.80;5.20
2639;DHT22;1329;51.384;7.122;2022-11-12T14:45:53;15.80;4.60
2639;DHT22;1329;51.384;7.122;2022-11-12T14:48:21;15.70;5.60
2639;DHT22;1329;51.384;7.122;2022-11-12T14:50:53;15.70;5.70
2639;DHT22;1329;51.384;7.122;2022-11-12T14:53:30;15.60;4.30
2639;DHT22;1329;51.384;7.122;2022-11-12T14:56:00;15.60;4.30
2639;DHT22;1329;51.384;7.122;2022-11-12T14:58:29;15.50;5.10
2639;DHT22;1329;51.384;7.122;2022-11-12T15:00:58;15.40;5.90
2639;DHT22;1329;51.384;7.122;2022-11-12T15:03:43;15.40;6.00
2639;DHT22;1329;51.384;7.122;2022-11-12T15:06:10;15.30;6.30
2639;DHT22;1329;51.384;7.122;2022-11-12T15:08:39;15.20;6.40
2639;DHT22;1329;51.384;7.122;2022-11-12T15:11:24;15.10;6.90
2639;DHT22;1329;51.384;7.122;2022-11-12T15:13:55;15.10;7.50
2639;DHT22;1329;51.384;7.122;2022-11-12T15:16:27;15.00;8.00
2639;DHT22;1329;51.384;7.122;2022-11-12T15:19:15;15.00;9.10
2639;DHT22;1329;51.384;7.122;2022-11-12T15:21:45;14.90;9.60
2639;DHT22;1329;51.384;7.122;2022-11-12T15:24:18;14.80;10.00
2639;DHT22;1329;51.384;7.122;2022-11-12T15:26:52;14.70;10.50
2639;DHT22;1329;51.384;7.122;2022-11-12T15:29:37;14.60;10.20
2639;DHT22;1329;51.384;7.122;2022-11-12T15:32:29;14.60;11.00
2639;DHT22;1329;51.384;7.122;2022-11-12T15:34:57;14.50;10.20
2639;DHT22;1329;51.384;7.122;2022-11-12T15:37:26;14.40;10.60
2639;DHT22;1329;51.384;7.122;2022-11-12T15:39:58;14.30;11.60
2639;DHT22;1329;51.384;7.122;2022-11-12T15:42:35;14.30;10.70
2639;DHT22;1329;51.384;7.122;2022-11-12T15:45:08;14.20;10.60
2639;DHT22;1329;51.384;7.122;2022-11-12T15:47:37;14.10;10.50
2639;DHT22;1329;51.384;7.122;2022-11-12T15:50:14;14.00;10.10
2639;DHT22;1329;51.384;7.122;2022-11-12T15:52:42;13.90;9.80
2639;DHT22;1329;51.384;7.122;2022-11-12T15:55:11;13.80;10.00
2639;DHT22;1329;51.384;7.122;2022-11-12T15:57:41;13.80;10.30
2639;DHT22;1329;51.384;7.122;2022-11-12T16:00:14;13.70;9.50
2639;DHT22;1329;51.384;7.122;2022-11-12T16:02:43;13.60;9.70
2639;DHT22;1329;51.384;7.122;2022-11-12T16:05:12;13.60;10.30
2639;DHT22;1329;51.384;7.122;2022-11-12T16:07:39;13.50;10.30
2639;DHT22;1329;51.384;7.122;2022-11-12T16:10:12;13.40;10.30
2639;DHT22;1329;51.384;7.122;2022-11-12T16:12:40;13.40;9.80
2639;DHT22;1329;51.384;7.122;2022-11-12T16:15:12;13.30;9.80
2639;DHT22;1329;51.384;7.122;2022-11-12T16:17:39;13.20;9.90
2639;DHT22;1329;51.384;7.122;2022-11-12T16:20:12;13.20;10.20
2639;DHT22;1329;51.384;7.122;2022-11-12T16:22:40;13.10;9.90
2639;DHT22;1329;51.384;7.122;2022-11-12T16:25:07;13.00;9.90
2639;DHT22;1329;51.384;7.122;2022-11-12T16:27:38;13.00;10.00
2639;DHT22;1329;51.384;7.122;2022-11-12T16:30:13;12.90;9.80
2639;DHT22;1329;51.384;7.122;2022-11-12T16:32:40;12.80;9.70
2639;DHT22;1329;51.384;7.122;2022-11-12T16:35:08;12.80;9.70
2639;DHT22;1329;51.384;7.122;2022-11-12T16:37:36;12.70;9.60
2639;DHT22;1329;51.384;7.122;2022-11-12T16:40:04;12.70;9.70
2639;DHT22;1329;51.384;7.122;2022-11-12T16:42:32;12.60;9.20
2639;DHT22;1329;51.384;7.122;2022-11-12T16:45:03;12.60;9.40
2639;DHT22;1329;51.384;7.122;2022-11-12T16:47:30;12.60;9.60
2639;DHT22;1329;51.384;7.122;2022-11-12T16:49:57;12.50;9.40
2639;DHT22;1329;51.384;7.122;2022-11-12T16:52:24;12.50;9.50
2639;DHT22;1329;51.384;7.122;2022-11-12T16:54:50;12.40;9.30